Time;durP1;ratioP1;P1;durP2;ratioP2;P2;SDS_P1;SDS_P2;PMS_P1;PMS_P2;Temp;Humidity;BMP_temperature;BMP_pressure;BME280_temperature;BME280_humidity;BME280_pressure;Samples;Min_cycle;Max_cycle;Signal;HPM_P1;HPM_P2
2023/05/16 00:02:06;;;;;;;8.48;2.75;;;9.30;99.90;;;;;;5016671;28;20033;-74
2023/05/16 00:04:31;;;;;;;6.05;1.35;;;9.30;99.90;;;;;;5016566;28;20075;-74
2023/05/16 00:06:57;;;;;;;6.95;1.48;;;9.20;99.90;;;;;;5016666;28;20022;-74
2023/05/16 00:09:23;;;;;;;9.13;1.08;;;9.20;99.90;;;;;;5016394;28;20033;-73
2023/05/16 00:11:49;;;;;;;9.98;1.00;;;9.20;99.90;;;;;;5016470;28;20044;-73
2023/05/16 00:14:15;;;;;;;6.85;1.38;;;9.30;99.90;;;;;;5016123;28;20092;-74
2023/05/16 00:16:40;;;;;;;9.23;1.27;;;9.20;99.90;;;;;;5016365;28;20029;-75
2023/05/16 00:19:06;;;;;;;10.32;1.65;;;9.20;99.90;;;;;;5016285;28;20026;-74
2023/05/16 00:21:33;;;;;;;1.77;1.38;;;9.30;99.90;;;;;;5016382;28;20022;-75
2023/05/16 00:23:59;;;;;;;9.68;0.80;;;9.20;99.90;;;;;;5016240;28;20029;-74
2023/05/16 00:26:25;;;;;;;8.40;1.15;;;9.20;99.90;;;;;;5031347;28;20397;-74
2023/05/16 00:28:50;;;;;;;11.30;0.98;;;9.20;99.90;;;;;;5012826;28;20030;-73
2023/05/16 00:31:16;;;;;;;8.60;0.93;;;9.20;99.90;;;;;;5016122;28;20067;-73
2023/05/16 00:33:41;;;;;;;10.38;1.55;;;9.20;99.90;;;;;;5031281;28;20034;-74
2023/05/16 00:36:07;;;;;;;7.80;1.13;;;9.20;99.90;;;;;;5016234;28;20033;-73
2023/05/16 00:38:33;;;;;;;11.75;1.40;;;9.20;99.90;;;;;;5015867;28;20029;-74
2023/05/16 00:41:00;;;;;;;7.63;0.90;;;9.20;99.90;;;;;;5015995;28;20030;-74
2023/05/16 00:43:25;;;;;;;10.32;1.77;;;9.10;99.90;;;;;;5015888;28;20437;-74
2023/05/16 00:45:51;;;;;;;4.13;1.45;;;9.10;99.90;;;;;;5031058;28;20041;-73
2023/05/16 00:48:17;;;;;;;10.60;1.27;;;9.10;99.90;;;;;;5014581;28;20030;-74
2023/05/16 00:50:43;;;;;;;15.30;2.17;;;9.10;99.90;;;;;;5015751;28;20022;-74
2023/05/16 00:53:09;;;;;;;11.90;1.42;;;9.10;99.90;;;;;;5015780;28;20022;-74
2023/05/16 00:55:36;;;;;;;6.93;0.82;;;9.10;99.90;;;;;;5014793;28;20037;-74
2023/05/16 00:58:03;;;;;;;7.60;1.08;;;9.10;99.90;;;;;;5015764;28;20029;-74
2023/05/16 01:00:29;;;;;;;7.67;1.13;;;9.10;99.90;;;;;;5015641;28;20125;-73
2023/05/16 01:02:55;;;;;;;9.10;2.95;;;9.10;99.90;;;;;;5015214;28;20454;-73
2023/05/16 01:05:21;;;;;;;12.15;1.30;;;9.10;99.90;;;;;;5014868;28;20050;-74
2023/05/16 01:07:47;;;;;;;8.02;1.23;;;9.10;99.90;;;;;;5030582;28;20066;-74
2023/05/16 01:10:13;;;;;;;8.57;1.38;;;9.10;99.90;;;;;;5015409;28;20025;-74
2023/05/16 01:12:56;;;;;;;10.77;2.50;;;9.00;99.90;;;;;;5015506;28;20394;-73
2023/05/16 01:15:30;;;;;;;9.55;1.15;;;9.00;99.90;;;;;;5015048;28;20038;-73
2023/05/16 01:18:04;;;;;;;7.78;1.23;;;9.00;99.90;;;;;;5015311;28;20026;-75
2023/05/16 01:20:47;;;;;;;12.02;1.75;;;9.00;99.90;;;;;;5015302;28;20440;-74
2023/05/16 01:23:33;;;;;;;6.15;1.15;;;9.00;99.90;;;;;;5015134;28;20037;-75
2023/05/16 01:26:07;;;;;;;6.95;1.55;;;9.00;99.90;;;;;;5015004;28;20038;-74
2023/05/16 01:28:34;;;;;;;9.35;1.85;;;9.00;99.90;;;;;;5015064;28;20037;-74
2023/05/16 01:31:00;;;;;;;13.70;1.42;;;9.00;99.90;;;;;;5030219;28;20518;-73
2023/05/16 01:33:26;;;;;;;6.57;1.05;;;9.00;99.90;;;;;;5014983;28;20029;-75
2023/05/16 01:36:02;;;;;;;8.80;1.83;;;9.00;99.90;;;;;;5030065;28;20049;-73
2023/05/16 01:38:42;;;;;;;11.40;1.10;;;9.00;99.90;;;;;;5014660;28;20095;-75
2023/05/16 01:41:52;;;;;;;8.85;1.63;;;9.00;99.90;;;;;;5029872;28;20042;-75
2023/05/16 01:44:53;;;;;;;7.13;1.42;;;9.00;99.90;;;;;;4973656;28;20457;-73
2023/05/16 01:47:21;;;;;;;8.48;0.98;;;8.90;99.90;;;;;;4968233;28;20038;-72
2023/05/16 01:50:08;;;;;;;16.23;2.22;;;8.90;99.90;;;;;;5004991;28;20038;-74
2023/05/16 01:52:55;;;;;;;8.82;0.98;;;8.90;99.90;;;;;;5014608;28;20104;-75
2023/05/16 01:55:29;;;;;;;6.60;0.93;;;8.80;99.90;;;;;;5029770;28;20112;-74
2023/05/16 01:57:55;;;;;;;8.30;1.67;;;8.80;99.90;;;;;;5029846;28;20372;-74
2023/05/16 02:00:22;;;;;;;9.50;1.67;;;8.80;99.90;;;;;;5014457;28;20429;-74
2023/05/16 02:02:48;;;;;;;10.88;1.33;;;8.80;99.90;;;;;;5014508;28;20017;-74
2023/05/16 02:05:13;;;;;;;5.50;0.88;;;8.70;99.90;;;;;;5014218;28;20029;-74
2023/05/16 02:07:40;;;;;;;8.27;0.90;;;8.70;99.90;;;;;;5014270;28;20021;-74
2023/05/16 02:10:06;;;;;;;4.88;0.82;;;8.70;99.90;;;;;;5014124;28;20473;-74
2023/05/16 02:12:32;;;;;;;7.85;1.30;;;8.80;99.90;;;;;;5014560;28;20053;-74
2023/05/16 02:14:57;;;;;;;14.52;0.98;;;8.70;99.90;;;;;;5014037;28;20509;-74
2023/05/16 02:17:23;;;;;;;9.95;1.38;;;8.80;99.90;;;;;;5014214;28;20500;-74
2023/05/16 02:19:48;;;;;;;6.07;1.15;;;8.80;99.90;;;;;;5029272;28;20026;-73
2023/05/16 02:22:14;;;;;;;5.25;1.33;;;8.80;99.90;;;;;;5029420;28;20034;-73
2023/05/16 02:24:40;;;;;;;11.43;1.60;;;8.70;99.90;;;;;;5029209;28;20026;-73
2023/05/16 02:27:05;;;;;;;18.42;1.25;;;8.70;99.90;;;;;;5014132;28;20470;-75
2023/05/16 02:29:31;;;;;;;4.05;0.73;;;8.70;99.90;;;;;;5013974;28;20026;-73
2023/05/16 02:31:57;;;;;;;8.93;1.38;;;8.70;99.90;;;;;;5013995;28;20117;-74
2023/05/16 02:34:23;;;;;;;9.23;3.92;;;8.70;99.90;;;;;;5014002;28;20021;-73
2023/05/16 02:36:48;;;;;;;6.47;1.23;;;8.60;99.90;;;;;;5028886;28;20041;-73
2023/05/16 02:39:14;;;;;;;5.35;1.05;;;8.60;99.90;;;;;;5013807;28;20033;-74
2023/05/16 02:41:40;;;;;;;6.05;1.13;;;8.70;99.90;;;;;;5013677;28;20469;-74
2023/05/16 02:44:05;;;;;;;12.20;1.40;;;8.60;99.90;;;;;;5013763;28;20102;-73
2023/05/16 02:46:33;;;;;;;8.68;1.80;;;8.60;99.90;;;;;;5013714;28;20025;-74
2023/05/16 02:49:00;;;;;;;8.27;1.30;;;8.60;99.90;;;;;;5013894;28;20076;-74
2023/05/16 02:51:27;;;;;;;4.80;1.20;;;8.60;99.90;;;;;;5013635;28;20052;-73
2023/05/16 02:53:53;;;;;;;12.30;1.45;;;8.50;99.90;;;;;;5029009;28;20528;-72
2023/05/16 02:56:20;;;;;;;9.25;2.20;;;8.50;99.90;;;;;;5028595;28;20058;-73
2023/05/16 02:58:47;;;;;;;12.32;2.53;;;8.50;99.90;;;;;;5013680;28;20104;-72
2023/05/16 03:01:14;;;;;;;10.82;1.75;;;8.40;99.90;;;;;;5013495;28;20029;-74
2023/05/16 03:03:39;;;;;;;5.22;1.08;;;8.40;99.90;;;;;;5028972;28;20095;-74
2023/05/16 03:06:05;;;;;;;12.05;2.03;;;8.40;99.90;;;;;;5013304;28;20026;-74
2023/05/16 03:08:32;;;;;;;6.28;1.60;;;8.40;99.90;;;;;;5013584;28;20466;-72
2023/05/16 03:10:58;;;;;;;8.07;1.48;;;8.40;99.90;;;;;;5013386;28;20033;-73
2023/05/16 03:13:24;;;;;;;8.88;2.25;;;8.30;99.90;;;;;;5012970;28;20026;-73
2023/05/16 03:15:50;;;;;;;15.07;1.65;;;8.30;99.90;;;;;;5013583;28;20021;-74
2023/05/16 03:18:16;;;;;;;6.82;1.63;;;8.20;99.90;;;;;;5012877;28;20030;-75
2023/05/16 03:20:42;;;;;;;16.13;2.42;;;8.20;99.90;;;;;;5028517;28;20549;-73
2023/05/16 03:23:07;;;;;;;10.75;1.90;;;8.20;99.90;;;;;;5013589;28;20474;-74
2023/05/16 03:25:35;;;;;;;5.68;1.17;;;8.20;99.90;;;;;;5013135;28;20033;-74
2023/05/16 03:28:08;;;;;;;4.97;1.40;;;8.20;99.90;;;;;;5013181;28;20018;-73
2023/05/16 03:30:34;;;;;;;10.40;2.38;;;8.10;99.90;;;;;;5013268;28;20462;-74
2023/05/16 03:33:00;;;;;;;16.10;2.35;;;8.10;99.90;;;;;;5013379;28;20022;-75
2023/05/16 03:35:27;;;;;;;3.95;1.33;;;8.10;99.90;;;;;;5028197;28;20034;-73
2023/05/16 03:37:52;;;;;;;9.70;1.52;;;8.10;99.90;;;;;;5012961;28;20429;-74
2023/05/16 03:40:18;;;;;;;5.90;1.10;;;8.10;99.90;;;;;;5013078;28;20032;-74
2023/05/16 03:42:44;;;;;;;13.55;1.58;;;8.10;99.90;;;;;;5028325;28;20080;-73
2023/05/16 03:45:11;;;;;;;5.80;1.27;;;8.10;99.90;;;;;;5012990;28;20474;-73
2023/05/16 03:47:36;;;;;;;19.63;1.30;;;8.10;99.90;;;;;;5013118;28;20390;-74
2023/05/16 03:50:02;;;;;;;3.38;1.30;;;8.10;99.90;;;;;;5013176;28;20018;-74
2023/05/16 03:52:28;;;;;;;11.45;1.35;;;8.20;99.90;;;;;;5021325;28;20545;-74
2023/05/16 03:54:53;;;;;;;11.05;1.25;;;8.10;99.90;;;;;;5028023;28;20037;-73
2023/05/16 03:57:19;;;;;;;13.05;2.03;;;8.20;99.90;;;;;;5013146;28;20029;-74
2023/05/16 03:59:45;;;;;;;4.78;1.58;;;8.20;99.90;;;;;;5028254;28;20022;-73
2023/05/16 04:02:11;;;;;;;8.90;1.38;;;8.10;99.90;;;;;;5028596;28;20465;-74
2023/05/16 04:04:36;;;;;;;2.25;0.80;;;8.10;99.90;;;;;;5013345;28;20022;-75
2023/05/16 04:07:02;;;;;;;10.98;1.17;;;8.10;99.90;;;;;;5013890;28;20032;-73
2023/05/16 04:09:28;;;;;;;11.35;1.35;;;8.10;99.90;;;;;;5014201;28;20030;-73
2023/05/16 04:11:56;;;;;;;7.35;1.65;;;8.10;99.90;;;;;;5031486;28;20064;-73
2023/05/16 04:14:23;;;;;;;17.58;2.08;;;8.10;99.90;;;;;;5044263;28;20379;-73
2023/05/16 04:16:48;;;;;;;3.47;1.45;;;8.10;99.90;;;;;;5029038;28;20030;-74
2023/05/16 04:19:14;;;;;;;8.30;1.63;;;8.20;99.90;;;;;;5030062;28;20032;-74
2023/05/16 04:21:40;;;;;;;2.75;1.00;;;8.20;99.90;;;;;;5043981;28;20037;-74
2023/05/16 04:24:06;;;;;;;9.73;1.45;;;8.20;99.90;;;;;;5027808;28;20088;-75
2023/05/16 04:26:32;;;;;;;10.70;1.48;;;8.30;99.90;;;;;;5030385;28;20006;-75
2023/05/16 04:28:58;;;;;;;11.10;1.33;;;8.40;99.90;;;;;;5036726;28;20150;-74
2023/05/16 04:31:26;;;;;;;9.07;1.58;;;8.40;99.90;;;;;;5038721;28;20018;-73
2023/05/16 04:33:52;;;;;;;10.55;1.45;;;8.40;99.90;;;;;;5040749;28;20018;-75
2023/05/16 04:36:18;;;;;;;17.92;2.08;;;8.40;99.90;;;;;;5040902;28;20494;-73
2023/05/16 04:38:45;;;;;;;5.90;1.85;;;8.50;99.90;;;;;;5039509;28;20053;-72
2023/05/16 04:41:12;;;;;;;15.32;1.60;;;8.40;99.90;;;;;;5054463;28;20018;-75
2023/05/16 04:43:38;;;;;;;8.45;1.58;;;8.40;99.90;;;;;;5053779;28;20025;-74
2023/05/16 04:46:05;;;;;;;10.18;1.55;;;8.40;99.90;;;;;;5053440;28;20109;-73
2023/05/16 04:48:31;;;;;;;17.10;2.22;;;8.40;99.90;;;;;;5038339;28;20022;-74
2023/05/16 04:50:57;;;;;;;10.43;2.03;;;8.50;99.90;;;;;;5053788;28;20088;-74
2023/05/16 04:53:23;;;;;;;13.25;2.05;;;8.60;99.90;;;;;;5037805;28;20030;-76
2023/05/16 04:55:48;;;;;;;16.75;2.30;;;8.60;99.90;;;;;;5037468;28;20026;-74
2023/05/16 04:58:14;;;;;;;10.90;1.60;;;8.70;99.90;;;;;;5037256;28;20108;-75
2023/05/16 05:00:41;;;;;;;6.30;1.67;;;8.80;99.90;;;;;;5052249;28;20014;-75
2023/05/16 05:03:07;;;;;;;13.93;1.75;;;8.80;99.90;;;;;;5036711;28;20175;-76
2023/05/16 05:05:32;;;;;;;5.25;1.52;;;8.80;99.90;;;;;;5036560;28;20022;-77
2023/05/16 05:07:59;;;;;;;9.00;1.88;;;8.80;99.90;;;;;;5037820;28;20044;-74
2023/05/16 05:10:26;;;;;;;9.32;1.80;;;8.80;99.90;;;;;;5038080;28;20013;-76
2023/05/16 05:12:52;;;;;;;8.18;1.60;;;8.90;99.90;;;;;;5038325;28;20493;-75
2023/05/16 05:15:18;;;;;;;8.00;1.63;;;9.00;99.90;;;;;;5037891;28;20105;-74
2023/05/16 05:17:44;;;;;;;17.70;1.95;;;9.10;99.90;;;;;;5037639;28;20044;-74
2023/05/16 05:20:11;;;;;;;10.27;2.67;;;9.10;99.90;;;;;;5037262;28;20030;-75
2023/05/16 05:22:36;;;;;;;10.50;1.83;;;9.20;99.90;;;;;;5053699;28;20060;-73
2023/05/16 05:25:02;;;;;;;5.40;1.90;;;9.20;99.90;;;;;;5037566;28;20046;-74
2023/05/16 05:27:28;;;;;;;13.90;1.83;;;9.20;99.90;;;;;;5037414;28;20077;-75
2023/05/16 05:29:53;;;;;;;14.45;1.60;;;9.30;99.90;;;;;;5037744;28;20210;-73
2023/05/16 05:32:19;;;;;;;9.48;1.70;;;9.30;99.90;;;;;;5037871;28;20065;-75
2023/05/16 05:34:45;;;;;;;5.43;1.40;;;9.40;99.90;;;;;;5037546;28;20042;-75
2023/05/16 05:37:10;;;;;;;10.70;1.50;;;9.60;99.90;;;;;;5037732;28;20086;-72
2023/05/16 05:39:36;;;;;;;5.50;1.85;;;9.90;99.90;;;;;;5037400;28;20017;-76
2023/05/16 05:42:02;;;;;;;15.07;1.77;;;10.30;99.90;;;;;;5037351;28;20044;-75
2023/05/16 05:44:29;;;;;;;5.28;0.98;;;10.30;99.90;;;;;;5036611;28;20066;-75
2023/05/16 05:46:56;;;;;;;1.75;0.80;;;10.10;99.90;;;;;;5036497;28;20069;-75
2023/05/16 05:49:25;;;;;;;4.20;1.27;;;10.10;99.90;;;;;;5036908;28;20002;-76
2023/05/16 05:51:51;;;;;;;3.75;1.30;;;10.10;99.90;;;;;;5037196;28;20065;-73
2023/05/16 05:54:20;;;;;;;3.30;0.88;;;10.10;99.90;;;;;;5037054;28;20041;-74
2023/05/16 05:56:46;;;;;;;6.80;0.95;;;10.20;99.90;;;;;;5052742;28;20014;-75
2023/05/16 05:59:12;;;;;;;6.25;1.15;;;10.20;99.90;;;;;;5052319;28;20064;-73
2023/05/16 06:01:38;;;;;;;7.22;1.05;;;10.20;99.90;;;;;;5035528;28;20038;-75
2023/05/16 06:04:04;;;;;;;7.55;1.20;;;10.20;99.90;;;;;;5035643;28;20022;-74
2023/05/16 06:06:30;;;;;;;8.10;1.20;;;10.30;99.90;;;;;;5034505;28;20505;-74
2023/05/16 06:08:56;;;;;;;20.95;2.22;;;10.30;99.90;;;;;;5023068;28;20030;-73
2023/05/16 06:11:24;;;;;;;9.35;1.58;;;10.40;99.90;;;;;;5017843;28;20092;-74
2023/05/16 06:13:50;;;;;;;5.15;0.85;;;10.50;99.90;;;;;;5017760;28;20438;-73
2023/05/16 06:16:16;;;;;;;9.05;1.30;;;10.50;99.90;;;;;;5016718;28;20026;-73
2023/05/16 06:18:42;;;;;;;6.38;0.95;;;10.50;99.90;;;;;;5031300;28;20117;-74
2023/05/16 06:21:07;;;;;;;8.95;1.13;;;10.60;99.90;;;;;;5015394;28;20113;-73
2023/05/16 06:23:34;;;;;;;8.30;0.82;;;10.70;99.90;;;;;;5015236;28;20061;-74
2023/05/16 06:26:01;;;;;;;18.63;3.45;;;10.70;99.90;;;;;;5014989;28;20032;-72
2023/05/16 06:28:26;;;;;;;21.08;1.75;;;10.80;99.90;;;;;;5029670;28;20434;-73
2023/05/16 06:30:52;;;;;;;4.95;0.90;;;11.00;99.90;;;;;;5014718;28;20026;-74
2023/05/16 06:33:18;;;;;;;3.38;0.95;;;11.10;99.90;;;;;;5029591;28;20037;-74
2023/05/16 06:35:44;;;;;;;4.30;1.15;;;11.30;99.90;;;;;;5029543;28;20037;-75
2023/05/16 06:38:09;;;;;;;5.43;1.08;;;12.20;99.90;;;;;;5013965;28;20474;-73
2023/05/16 06:40:36;;;;;;;4.57;1.67;;;13.40;99.90;;;;;;5014054;28;20025;-74
2023/05/16 06:43:02;;;;;;;9.88;0.93;;;14.00;99.90;;;;;;5014355;28;20049;-74
2023/05/16 06:45:28;;;;;;;3.78;0.52;;;13.90;99.90;;;;;;5014218;28;20064;-73
2023/05/16 06:47:55;;;;;;;3.03;0.80;;;14.60;99.90;;;;;;5028938;28;20030;-72
2023/05/16 06:50:21;;;;;;;7.40;1.00;;;15.20;99.90;;;;;;5012898;28;20030;-72
2023/05/16 06:52:46;;;;;;;3.03;1.27;;;15.90;99.90;;;;;;5013936;28;20033;-73
2023/05/16 06:55:12;;;;;;;6.88;0.57;;;16.00;99.90;;;;;;5014366;28;20475;-74
2023/05/16 06:57:38;;;;;;;1.77;0.63;;;15.90;99.90;;;;;;5028731;28;20034;-73
2023/05/16 07:00:04;;;;;;;4.80;0.77;;;16.20;99.90;;;;;;5028571;28;20128;-73
2023/05/16 07:02:30;;;;;;;3.38;0.75;;;16.30;99.90;;;;;;5013522;28;20025;-74
2023/05/16 07:04:56;;;;;;;6.70;1.25;;;16.50;99.90;;;;;;5013585;28;20022;-74
2023/05/16 07:07:21;;;;;;;9.18;1.35;;;15.80;99.90;;;;;;5013717;28;20080;-74
2023/05/16 07:09:47;;;;;;;4.18;0.70;;;15.70;99.90;;;;;;5013765;28;20033;-74
2023/05/16 07:12:13;;;;;;;2.70;0.70;;;15.80;99.90;;;;;;5013520;28;20414;-73
2023/05/16 07:14:39;;;;;;;5.35;1.10;;;15.50;99.90;;;;;;5013210;28;20124;-74
2023/05/16 07:17:05;;;;;;;6.63;0.55;;;15.30;99.90;;;;;;5013789;28;20060;-72
2023/05/16 07:19:31;;;;;;;6.00;0.98;;;14.90;99.90;;;;;;5013293;28;20486;-73
2023/05/16 07:21:56;;;;;;;3.75;0.70;;;14.50;99.90;;;;;;5013606;28;20022;-74
2023/05/16 07:24:22;;;;;;;1.85;0.55;;;14.10;99.90;;;;;;5013733;28;20026;-73
2023/05/16 07:26:48;;;;;;;1.33;0.65;;;13.60;99.90;;;;;;5013407;28;20026;-73
2023/05/16 07:29:14;;;;;;;3.22;0.60;;;13.40;99.90;;;;;;5028589;28;20050;-72
2023/05/16 07:31:40;;;;;;;8.40;1.73;;;13.10;99.90;;;;;;5013185;28;20022;-73
2023/05/16 07:34:06;;;;;;;4.43;1.08;;;12.80;99.90;;;;;;5013173;28;20014;-73
2023/05/16 07:36:33;;;;;;;4.22;0.70;;;12.80;99.90;;;;;;5012994;28;20034;-74
2023/05/16 07:38:59;;;;;;;1.43;0.80;;;12.60;99.90;;;;;;5013232;28;20041;-73
2023/05/16 07:41:25;;;;;;;1.10;0.38;;;12.30;99.90;;;;;;5013121;28;20128;-73
2023/05/16 07:43:50;;;;;;;7.10;1.05;;;12.00;99.90;;;;;;5013263;28;20092;-74
2023/05/16 07:46:16;;;;;;;2.83;0.57;;;11.60;99.90;;;;;;5012991;28;20049;-74
2023/05/16 07:48:42;;;;;;;4.30;0.70;;;11.60;99.90;;;;;;5013276;28;20025;-74
2023/05/16 07:51:08;;;;;;;2.55;0.80;;;11.80;99.90;;;;;;5013266;28;20030;-73
2023/05/16 07:53:33;;;;;;;4.85;0.95;;;12.10;99.90;;;;;;5013057;28;20033;-74
2023/05/16 07:55:59;;;;;;;6.38;0.65;;;12.50;99.90;;;;;;5012959;28;20475;-73
2023/05/16 07:58:25;;;;;;;1.95;0.80;;;12.60;99.90;;;;;;5013255;28;20026;-72
2023/05/16 08:00:50;;;;;;;2.92;0.60;;;12.80;99.90;;;;;;5013059;28;20064;-71
2023/05/16 08:03:16;;;;;;;5.63;0.45;;;12.50;99.90;;;;;;5012982;28;20022;-73
2023/05/16 08:05:42;;;;;;;4.00;0.82;;;12.20;99.90;;;;;;5030456;28;20026;-73
2023/05/16 08:08:07;;;;;;;6.53;0.63;;;12.00;99.90;;;;;;5016920;28;20382;-73
2023/05/16 08:10:33;;;;;;;4.43;0.63;;;12.00;99.90;;;;;;5016862;28;20022;-74
2023/05/16 08:12:59;;;;;;;5.82;0.40;;;12.20;99.90;;;;;;5016558;28;20121;-74
2023/05/16 08:15:26;;;;;;;9.40;1.92;;;12.40;99.90;;;;;;5031527;28;20054;-72
2023/05/16 08:17:56;;;;;;;1.55;0.32;;;12.50;99.90;;;;;;5015387;28;20038;-73
2023/05/16 08:20:21;;;;;;;2.78;1.25;;;12.90;99.90;;;;;;5016457;28;20026;-73
2023/05/16 08:22:47;;;;;;;5.50;0.60;;;13.30;99.90;;;;;;5031916;28;20120;-74
2023/05/16 08:25:12;;;;;;;2.15;0.60;;;13.50;99.90;;;;;;5031665;28;20073;-74
2023/05/16 08:27:38;;;;;;;6.40;0.65;;;13.60;99.90;;;;;;5016621;28;20021;-74
2023/05/16 08:30:04;;;;;;;2.60;1.30;;;14.10;99.90;;;;;;5016258;28;20029;-74
2023/05/16 08:32:30;;;;;;;10.75;1.02;;;14.20;99.90;;;;;;5016574;28;20390;-72
2023/05/16 08:34:56;;;;;;;4.35;1.00;;;14.10;99.90;;;;;;5016383;28;20028;-73
2023/05/16 08:37:21;;;;;;;6.35;0.50;;;14.10;99.90;;;;;;5016208;28;20097;-73
2023/05/16 08:39:47;;;;;;;9.80;0.85;;;14.20;99.90;;;;;;5031200;28;20018;-74
2023/05/16 08:42:13;;;;;;;5.78;1.05;;;14.40;99.90;;;;;;5016042;28;20524;-74
2023/05/16 08:44:38;;;;;;;4.65;1.17;;;14.60;99.90;;;;;;5016319;28;20029;-74
2023/05/16 08:47:16;;;;;;;9.55;0.85;;;14.70;99.90;;;;;;5031654;28;20117;-73
2023/05/16 08:49:44;;;;;;;3.47;0.60;;;14.50;99.90;;;;;;5014602;28;20022;-74
2023/05/16 08:52:12;;;;;;;2.70;0.70;;;14.50;99.90;;;;;;5016085;28;20033;-73
2023/05/16 08:54:39;;;;;;;3.15;0.55;;;14.40;99.90;;;;;;5015977;28;20110;-74
2023/05/16 08:57:07;;;;;;;2.05;0.68;;;14.50;99.90;;;;;;5015951;28;20052;-74
2023/05/16 08:59:34;;;;;;;9.20;1.30;;;14.10;99.90;;;;;;5015931;28;20458;-74
2023/05/16 09:02:00;;;;;;;3.35;1.05;;;13.90;99.90;;;;;;5016101;28;20394;-74
2023/05/16 09:04:26;;;;;;;3.15;1.30;;;13.60;99.90;;;;;;5016062;28;20025;-74
2023/05/16 09:06:52;;;;;;;2.67;0.60;;;13.30;99.90;;;;;;5016430;28;20056;-74
2023/05/16 09:09:18;;;;;;;2.78;0.63;;;13.50;99.90;;;;;;5014383;28;20022;-73
2023/05/16 09:11:44;;;;;;;2.72;0.65;;;13.70;99.90;;;;;;5015673;28;20026;-74
2023/05/16 09:14:10;;;;;;;7.50;0.70;;;14.00;99.90;;;;;;5030650;28;20049;-73
2023/05/16 09:16:36;;;;;;;4.43;1.35;;;14.70;99.90;;;;;;5014789;28;20033;-74
2023/05/16 09:19:03;;;;;;;5.18;0.70;;;15.00;99.90;;;;;;5015750;28;20030;-73
2023/05/16 09:21:31;;;;;;;3.30;0.30;;;14.70;99.90;;;;;;5030612;28;20026;-74
2023/05/16 09:24:07;;;;;;;7.78;1.15;;;14.30;99.90;;;;;;5015594;28;20049;-72
2023/05/16 09:26:35;;;;;;;4.63;0.75;;;13.90;99.90;;;;;;5015541;28;20117;-74
2023/05/16 09:29:01;;;;;;;2.42;0.40;;;13.70;99.90;;;;;;5015543;28;20098;-73
2023/05/16 09:31:37;;;;;;;2.47;0.82;;;13.50;99.90;;;;;;5030263;28;20430;-70
2023/05/16 09:34:06;;;;;;;8.48;1.20;;;13.40;99.90;;;;;;5030140;28;20101;-69
2023/05/16 09:36:32;;;;;;;5.03;1.02;;;13.10;99.90;;;;;;5013707;28;20026;-69
2023/05/16 09:38:57;;;;;;;7.88;0.65;;;13.00;99.90;;;;;;5014835;28;20040;-70
2023/05/16 09:41:23;;;;;;;4.00;0.57;;;13.00;99.90;;;;;;5014656;28;20538;-69
2023/05/16 09:43:49;;;;;;;2.53;0.40;;;13.00;99.90;;;;;;5027042;28;20084;-69
2023/05/16 09:46:15;;;;;;;2.58;0.75;;;13.00;99.90;;;;;;5014526;28;20486;-69
2023/05/16 09:48:44;;;;;;;5.55;0.88;;;13.10;99.90;;;;;;5014827;28;20068;-70
2023/05/16 09:51:12;;;;;;;3.97;0.63;;;13.40;99.90;;;;;;5013262;28;20030;-70
2023/05/16 09:53:38;;;;;;;2.83;0.73;;;13.70;99.90;;;;;;5014533;28;20036;-69
2023/05/16 09:56:10;;;;;;;0.98;0.50;;;13.90;99.90;;;;;;5014391;28;20022;-68
2023/05/16 09:58:37;;;;;;;5.35;0.80;;;13.80;99.90;;;;;;5029559;28;20022;-68
2023/05/16 10:01:04;;;;;;;11.85;0.80;;;13.40;99.90;;;;;;5014385;28;20052;-69
2023/05/16 10:03:31;;;;;;;0.85;0.43;;;13.10;99.90;;;;;;5014377;28;20078;-69
2023/05/16 10:06:15;;;;;;;6.28;0.68;;;13.00;99.90;;;;;;5014171;28;20022;-70
2023/05/16 10:08:42;;;;;;;6.40;0.63;;;13.00;99.90;;;;;;5014209;28;20018;-70
2023/05/16 10:11:08;;;;;;;2.03;0.60;;;13.20;99.90;;;;;;5012875;28;20022;-69
2023/05/16 10:13:35;;;;;;;3.63;0.50;;;13.60;99.90;;;;;;5029157;28;20017;-69
2023/05/16 10:16:14;;;;;;;3.00;0.90;;;13.70;99.90;;;;;;5013835;28;20514;-70
2023/05/16 10:18:41;;;;;;;2.88;1.23;;;13.50;99.90;;;;;;5014068;28;20482;-70
2023/05/16 10:21:13;;;;;;;3.95;0.73;;;13.40;99.90;;;;;;5029183;28;20033;-69
2023/05/16 10:23:43;;;;;;;7.40;0.70;;;13.20;99.90;;;;;;5014037;28;20501;-69
2023/05/16 10:26:10;;;;;;;2.17;0.60;;;13.50;99.90;;;;;;5013794;28;20069;-69
2023/05/16 10:28:35;;;;;;;3.53;0.97;;;13.60;99.90;;;;;;5013912;28;20030;-69
2023/05/16 10:31:02;;;;;;;2.70;0.47;;;13.70;99.90;;;;;;5013772;28;20022;-69
2023/05/16 10:33:28;;;;;;;2.15;0.40;;;14.00;99.90;;;;;;5028954;28;20092;-70
2023/05/16 10:35:55;;;;;;;7.20;0.70;;;13.90;99.90;;;;;;5011909;28;20034;-70
2023/05/16 10:38:23;;;;;;;6.20;0.70;;;13.90;99.90;;;;;;5012366;28;20081;-69
2023/05/16 10:40:50;;;;;;;0.95;0.47;;;13.80;99.90;;;;;;5013674;28;20026;-70
2023/05/16 10:43:29;;;;;;;2.42;0.75;;;13.80;99.90;;;;;;5013668;28;20026;-69
2023/05/16 10:45:56;;;;;;;10.30;1.52;;;13.60;99.90;;;;;;5013532;28;20478;-69
2023/05/16 10:48:37;;;;;;;1.35;0.98;;;13.40;99.90;;;;;;5013596;28;20034;-70
2023/05/16 10:51:24;;;;;;;2.03;0.52;;;13.30;99.90;;;;;;5013451;28;20025;-69
2023/05/16 10:53:54;;;;;;;2.42;0.40;;;13.30;99.90;;;;;;5028593;28;20029;-69
2023/05/16 10:56:24;;;;;;;1.60;0.55;;;13.40;99.90;;;;;;5013378;28;20033;-68
2023/05/16 10:58:54;;;;;;;9.52;1.40;;;13.80;99.90;;;;;;5013674;28;20073;-69
2023/05/16 11:01:28;;;;;;;2.55;0.60;;;14.10;99.90;;;;;;5013367;28;20025;-70
2023/05/16 11:04:03;;;;;;;0.77;0.65;;;14.00;99.90;;;;;;5013414;28;20040;-70
2023/05/16 11:06:34;;;;;;;3.08;0.60;;;14.10;99.90;;;;;;5013300;28;20064;-69
2023/05/16 11:09:09;;;;;;;4.38;0.40;;;14.20;99.90;;;;;;5013265;28;20497;-70
2023/05/16 11:11:55;;;;;;;1.35;0.57;;;14.20;99.90;;;;;;5013231;28;20436;-71
2023/05/16 11:14:38;;;;;;;7.50;0.95;;;14.10;99.90;;;;;;5012957;28;20033;-71
2023/05/16 11:17:12;;;;;;;3.40;0.77;;;13.90;99.90;;;;;;5013240;28;20030;-71
2023/05/16 11:19:45;;;;;;;1.60;0.60;;;13.60;99.90;;;;;;5013275;28;20133;-71
2023/05/16 11:22:22;;;;;;;2.60;0.50;;;13.60;99.90;;;;;;5013206;28;20062;-69
2023/05/16 11:24:58;;;;;;;1.38;0.32;;;13.50;99.90;;;;;;5013134;28;20030;-70
2023/05/16 11:27:32;;;;;;;2.30;0.57;;;13.50;99.90;;;;;;5013116;28;20026;-70
2023/05/16 11:30:04;;;;;;;3.83;1.25;;;13.60;99.90;;;;;;5013084;28;20038;-70
2023/05/16 11:32:33;;;;;;;4.32;1.58;;;13.70;99.90;;;;;;5028484;28;20061;-69
2023/05/16 11:35:00;;;;;;;3.22;0.50;;;13.90;99.90;;;;;;5012876;28;20096;-69
2023/05/16 11:37:27;;;;;;;5.60;1.13;;;13.80;99.90;;;;;;5012861;28;20109;-69
2023/05/16 11:39:53;;;;;;;5.68;0.93;;;13.70;99.90;;;;;;5012906;28;20030;-70
2023/05/16 11:42:19;;;;;;;4.78;0.60;;;13.60;99.90;;;;;;5016898;28;20022;-69
2023/05/16 11:44:45;;;;;;;3.67;0.80;;;13.60;99.90;;;;;;5016909;28;20026;-70
2023/05/16 11:47:11;;;;;;;1.55;0.70;;;13.60;99.90;;;;;;5016769;28;20026;-70
2023/05/16 11:49:37;;;;;;;3.65;0.55;;;13.60;99.90;;;;;;5016812;28;20488;-69
2023/05/16 11:52:03;;;;;;;14.38;1.20;;;13.70;99.90;;;;;;5016855;28;20042;-70
2023/05/16 11:54:30;;;;;;;4.38;0.80;;;13.70;99.90;;;;;;5016758;28;20101;-70
2023/05/16 11:56:56;;;;;;;3.67;1.00;;;13.60;99.90;;;;;;5016666;28;20080;-69
2023/05/16 11:59:23;;;;;;;6.93;0.68;;;13.50;99.90;;;;;;5016660;28;20030;-69
2023/05/16 12:01:49;;;;;;;5.13;0.50;;;13.50;99.90;;;;;;5016651;28;20022;-71
2023/05/16 12:04:16;;;;;;;1.00;0.47;;;13.40;99.90;;;;;;5016177;28;20026;-69
2023/05/16 12:06:43;;;;;;;1.77;0.52;;;13.40;99.90;;;;;;5016295;28;20061;-69
2023/05/16 12:09:13;;;;;;;4.05;0.63;;;13.50;99.90;;;;;;5016725;28;20014;-71
2023/05/16 12:11:40;;;;;;;1.42;0.65;;;13.70;99.90;;;;;;5016358;28;20026;-72
2023/05/16 12:14:08;;;;;;;2.35;1.40;;;14.10;99.90;;;;;;5016156;28;20021;-70
2023/05/16 12:16:35;;;;;;;;;;;14.30;99.90;;;;;;5016799;28;20030;-68
2023/05/16 12:19:03;;;;;;;0.93;0.55;;;14.20;99.90;;;;;;5031541;28;20324;-69
2023/05/16 12:21:30;;;;;;;5.07;0.45;;;14.10;99.90;;;;;;5016260;28;20022;-69
2023/05/16 12:23:58;;;;;;;4.55;1.00;;;13.90;99.90;;;;;;5016268;28;20474;-69
2023/05/16 12:26:30;;;;;;;3.08;0.70;;;13.70;99.90;;;;;;5016015;28;20498;-68
2023/05/16 12:29:02;;;;;;;4.47;1.08;;;13.80;99.90;;;;;;5016119;28;20022;-69
2023/05/16 12:31:35;;;;;;;4.45;0.70;;;14.10;99.90;;;;;;5016158;28;20501;-70
2023/05/16 12:34:01;;;;;;;14.68;0.60;;;14.40;99.90;;;;;;5014782;28;20017;-70
2023/05/16 12:36:32;;;;;;;5.80;0.65;;;14.60;99.90;;;;;;5015815;28;20512;-69
2023/05/16 12:39:02;;;;;;;3.80;1.38;;;14.70;99.90;;;;;;5015966;28;20041;-70
2023/05/16 12:41:30;;;;;;;5.88;0.80;;;14.70;99.90;;;;;;5015870;28;20083;-69
2023/05/16 12:44:18;;;;;;;2.72;0.80;;;14.90;99.90;;;;;;5014605;28;20493;-69
2023/05/16 12:46:50;;;;;;;6.63;1.05;;;15.00;99.90;;;;;;5015711;28;20026;-69
2023/05/16 12:49:22;;;;;;;8.77;1.10;;;14.60;99.90;;;;;;5015646;28;20018;-69
2023/05/16 12:51:50;;;;;;;4.60;0.70;;;14.30;99.90;;;;;;5014415;28;20478;-69
2023/05/16 12:54:16;;;;;;;6.00;0.50;;;14.10;99.90;;;;;;5015651;28;20032;-70